Astol — 9LD2250 — position and weather

sailwx.info

Track history (hours):
 
Tides and Currents Weather Stations Pressure Air Temp Water Temp Dewpoint Dewpoint Depression Visibility Wind Speed Wind Dir Waves Ship Positions

Astol

Last reported at 2018-Feb-12 08:04 UTC. Time now 2018-Feb-21 19:52 UTC.
Position N 45°09' E 036°29'.
Warning: this ship's position is 9 days out of date.

Length 114 m; draft 3.9 m.

Type: Cargo ship. MMSI: 667949000.

Date/timePositionNaut miles runAvg speedWind from/ knotsBaromVisibWave heightAir tempDewpointWater temp
2018-Feb-12 08:04N 45°09' E 036°29'0 7.7
2018-Feb-12 08:00N 45°09' E 036°29'4 7.9
2018-Feb-12 07:31N 45°13' E 036°28'4 7.6
2018-Feb-12 07:00N 45°17' E 036°28'3 5.6
2018-Feb-12 06:30N 45°19' E 036°31'4 7.0
2018-Feb-12 06:00N 45°20' E 036°36'4 7.4
2018-Feb-12 05:30N 45°22' E 036°40'3 5.9
2018-Feb-12 05:00N 45°25' E 036°40'2 4.6
2018-Feb-12 04:30N 45°27' E 036°39'1 1.3
2018-Feb-12 04:00N 45°28' E 036°38'0 0.0
2018-Feb-12 03:30N 45°28' E 036°38'0 0.0
2018-Feb-12 03:00N 45°28' E 036°38'0 0.0
2018-Feb-12 02:30N 45°28' E 036°38'0 0.0
2018-Feb-12 02:00N 45°28' E 036°38'0 0.1
2018-Feb-12 01:30N 45°28' E 036°38'0 0.0
2018-Feb-12 01:00N 45°28' E 036°38'0 0.0
2018-Feb-11 23:57N 45°28' E 036°38'0 0.0
2018-Feb-11 22:00N 45°28' E 036°38'0 0.0
2018-Feb-11 21:09N 45°28' E 036°38'0 0.0
2018-Feb-11 20:57N 45°28' E 036°38'0 0.0
2018-Feb-11 20:27N 45°28' E 036°38'0 0.0
2018-Feb-11 20:00N 45°28' E 036°38'0 0.0
2018-Feb-11 19:27N 45°28' E 036°38'0 0.0
2018-Feb-11 19:00N 45°28' E 036°38'0 0.0
2018-Feb-11 18:30N 45°28' E 036°38'0 0.0
2018-Feb-11 18:00N 45°28' E 036°38'0 0.0
2018-Feb-11 17:30N 45°28' E 036°38'0 0.0
2018-Feb-11 16:57N 45°28' E 036°38'0 0.0
2018-Feb-11 16:30N 45°28' E 036°38'0 0.0
2018-Feb-11 14:36N 45°28' E 036°38'0 0.0
2018-Feb-11 14:27N 45°28' E 036°38'0 0.0
2018-Feb-11 13:57N 45°28' E 036°38'0 0.0
2018-Feb-11 13:30N 45°28' E 036°38'0 0.0
2018-Feb-11 13:00N 45°28' E 036°38'0 0.0
2018-Feb-11 12:30N 45°28' E 036°38'0 0.0
2018-Feb-11 12:00N 45°28' E 036°38'0 0.0
2018-Feb-11 11:30N 45°28' E 036°38'0 0.0
2018-Feb-11 11:00N 45°28' E 036°38'0 0.0
2018-Feb-11 10:18N 45°28' E 036°38'0 0.0
2018-Feb-11 10:00N 45°28' E 036°38'0 0.0
2018-Feb-11 09:30N 45°28' E 036°38'0 0.0
2018-Feb-11 08:57N 45°28' E 036°38'0 0.0
2018-Feb-11 08:30N 45°28' E 036°38'0 0.0
2018-Feb-11 08:00N 45°28' E 036°38'0 0.0
2018-Feb-11 07:30N 45°28' E 036°38'0 0.1
2018-Feb-11 07:00N 45°28' E 036°38'2 4.6
2018-Feb-11 06:30N 45°30' E 036°40'4 7.4
2018-Feb-11 06:00N 45°33' E 036°42'4 7.5
2018-Feb-11 05:30N 45°36' E 036°45'  
2018-Feb-05 10:18N 45°31' E 036°49'1 1.7
2018-Feb-05 09:55N 45°30' E 036°49'0 0.0
2018-Feb-05 09:28N 45°30' E 036°49'0 0.0
2018-Feb-05 08:58N 45°30' E 036°49'0 0.0
2018-Feb-05 08:25N 45°30' E 036°49'0 0.0
2018-Feb-05 07:52N 45°30' E 036°49'0 0.0
2018-Feb-05 07:25N 45°30' E 036°49'0 0.0
2018-Feb-05 06:58N 45°30' E 036°49'0 0.0
2018-Feb-05 06:25N 45°30' E 036°49'0 0.0
2018-Feb-05 05:28N 45°30' E 036°49'0 0.0
2018-Feb-05 04:58N 45°30' E 036°49'1 0.5
2018-Feb-05 03:39N 45°30' E 036°48'1 7.2
2018-Feb-05 03:30N 45°29' E 036°47'4 7.8
2018-Feb-05 03:01N 45°26' E 036°43'4 7.3
2018-Feb-05 02:30N 45°23' E 036°41'3 6.5
2018-Feb-05 02:00N 45°20' E 036°38'4 7.7
2018-Feb-05 01:30N 45°19' E 036°33'3 6.9
2018-Feb-05 01:00N 45°17' E 036°29'4 7.4
2018-Feb-05 00:30N 45°13' E 036°29'2 3.2
2018-Feb-04 23:57N 45°12' E 036°31'0 0.0
2018-Feb-04 22:09N 45°12' E 036°31'0 0.1
2018-Feb-04 21:39N 45°12' E 036°31'0 0.0
2018-Feb-04 21:21N 45°12' E 036°31'0 0.0
2018-Feb-04 20:54N 45°12' E 036°31'0 0.0
2018-Feb-04 19:45N 45°12' E 036°31'0 0.0
2018-Feb-04 19:27N 45°12' E 036°31'0 0.1
2018-Feb-04 17:39N 45°12' E 036°30'0 0.0
2018-Feb-04 17:15N 45°12' E 036°31'0 0.0
2018-Feb-04 14:39N 45°12' E 036°30'0 0.0
2018-Feb-04 14:30N 45°12' E 036°30'0 0.0
2018-Feb-04 13:51N 45°12' E 036°30'0 0.0
2018-Feb-04 13:27N 45°12' E 036°30'0 0.0
2018-Feb-04 12:09N 45°12' E 036°30'0 0.0
2018-Feb-04 11:57N 45°12' E 036°30'0 0.0
2018-Feb-04 11:24N 45°12' E 036°30'0 0.0
2018-Feb-04 09:57N 45°12' E 036°30'0 0.0
2018-Feb-04 08:54N 45°12' E 036°30'0 0.0
2018-Feb-04 08:12N 45°12' E 036°30'0 0.1
2018-Feb-04 08:00N 45°12' E 036°30'0 0.0
2018-Feb-04 07:27N 45°12' E 036°30'0 0.0
2018-Feb-04 06:15N 45°12' E 036°30'0 0.0
2018-Feb-04 06:00N 45°12' E 036°30'0 0.0
2018-Feb-04 05:30N 45°12' E 036°30'0 0.0
2018-Feb-04 00:51N 45°12' E 036°30'0 0.0
2018-Feb-03 23:30N 45°12' E 036°30'3 5.4
2018-Feb-03 22:54N 45°09' E 036°30'13 8.5
2018-Feb-03 21:21N 44°55' E 036°32'  
Track history (hours):
 
Tides and Currents Weather Stations Pressure Air Temp Water Temp Dewpoint Dewpoint Depression Visibility Wind Speed Wind Dir Waves Ship Positions

Astol

Last reported at 2018-Feb-12 08:04 UTC. Time now 2018-Feb-21 19:52 UTC.
Position N 45°09' E 036°29'.
Warning: this ship's position is 9 days out of date.

Length 114 m; draft 3.9 m.

Type: Cargo ship. MMSI: 667949000.

Date/timePositionNaut miles runAvg speedWind from/ knotsBaromVisibWave heightAir tempDewpointWater temp
2018-Feb-12 08:04N 45°09' E 036°29'0 7.7
2018-Feb-12 08:00N 45°09' E 036°29'4 7.9
2018-Feb-12 07:31N 45°13' E 036°28'4 7.6
2018-Feb-12 07:00N 45°17' E 036°28'3 5.6
2018-Feb-12 06:30N 45°19' E 036°31'4 7.0
2018-Feb-12 06:00N 45°20' E 036°36'4 7.4
2018-Feb-12 05:30N 45°22' E 036°40'3 5.9
2018-Feb-12 05:00N 45°25' E 036°40'2 4.6
2018-Feb-12 04:30N 45°27' E 036°39'1 1.3
2018-Feb-12 04:00N 45°28' E 036°38'0 0.0
2018-Feb-12 03:30N 45°28' E 036°38'0 0.0
2018-Feb-12 03:00N 45°28' E 036°38'0 0.0
2018-Feb-12 02:30N 45°28' E 036°38'0 0.0
2018-Feb-12 02:00N 45°28' E 036°38'0 0.1
2018-Feb-12 01:30N 45°28' E 036°38'0 0.0
2018-Feb-12 01:00N 45°28' E 036°38'0 0.0
2018-Feb-11 23:57N 45°28' E 036°38'0 0.0
2018-Feb-11 22:00N 45°28' E 036°38'0 0.0
2018-Feb-11 21:09N 45°28' E 036°38'0 0.0
2018-Feb-11 20:57N 45°28' E 036°38'0 0.0
2018-Feb-11 20:27N 45°28' E 036°38'0 0.0
2018-Feb-11 20:00N 45°28' E 036°38'0 0.0
2018-Feb-11 19:27N 45°28' E 036°38'0 0.0
2018-Feb-11 19:00N 45°28' E 036°38'0 0.0
2018-Feb-11 18:30N 45°28' E 036°38'0 0.0
2018-Feb-11 18:00N 45°28' E 036°38'0 0.0
2018-Feb-11 17:30N 45°28' E 036°38'0 0.0
2018-Feb-11 16:57N 45°28' E 036°38'0 0.0
2018-Feb-11 16:30N 45°28' E 036°38'0 0.0
2018-Feb-11 14:36N 45°28' E 036°38'0 0.0
2018-Feb-11 14:27N 45°28' E 036°38'0 0.0
2018-Feb-11 13:57N 45°28' E 036°38'0 0.0
2018-Feb-11 13:30N 45°28' E 036°38'0 0.0
2018-Feb-11 13:00N 45°28' E 036°38'0 0.0
2018-Feb-11 12:30N 45°28' E 036°38'0 0.0
2018-Feb-11 12:00N 45°28' E 036°38'0 0.0
2018-Feb-11 11:30N 45°28' E 036°38'0 0.0
2018-Feb-11 11:00N 45°28' E 036°38'0 0.0
2018-Feb-11 10:18N 45°28' E 036°38'0 0.0
2018-Feb-11 10:00N 45°28' E 036°38'0 0.0
2018-Feb-11 09:30N 45°28' E 036°38'0 0.0
2018-Feb-11 08:57N 45°28' E 036°38'0 0.0
2018-Feb-11 08:30N 45°28' E 036°38'0 0.0
2018-Feb-11 08:00N 45°28' E 036°38'0 0.0
2018-Feb-11 07:30N 45°28' E 036°38'0 0.1
2018-Feb-11 07:00N 45°28' E 036°38'2 4.6
2018-Feb-11 06:30N 45°30' E 036°40'4 7.4
2018-Feb-11 06:00N 45°33' E 036°42'4 7.5
2018-Feb-11 05:30N 45°36' E 036°45'  
2018-Feb-05 10:18N 45°31' E 036°49'1 1.7
2018-Feb-05 09:55N 45°30' E 036°49'0 0.0
2018-Feb-05 09:28N 45°30' E 036°49'0 0.0
2018-Feb-05 08:58N 45°30' E 036°49'0 0.0
2018-Feb-05 08:25N 45°30' E 036°49'0 0.0
2018-Feb-05 07:52N 45°30' E 036°49'0 0.0
2018-Feb-05 07:25N 45°30' E 036°49'0 0.0
2018-Feb-05 06:58N 45°30' E 036°49'0 0.0
2018-Feb-05 06:25N 45°30' E 036°49'0 0.0
2018-Feb-05 05:28N 45°30' E 036°49'0 0.0
2018-Feb-05 04:58N 45°30' E 036°49'1 0.5
2018-Feb-05 03:39N 45°30' E 036°48'1 7.2
2018-Feb-05 03:30N 45°29' E 036°47'4 7.8
2018-Feb-05 03:01N 45°26' E 036°43'4 7.3
2018-Feb-05 02:30N 45°23' E 036°41'3 6.5
2018-Feb-05 02:00N 45°20' E 036°38'4 7.7
2018-Feb-05 01:30N 45°19' E 036°33'3 6.9
2018-Feb-05 01:00N 45°17' E 036°29'4 7.4
2018-Feb-05 00:30N 45°13' E 036°29'2 3.2
2018-Feb-04 23:57N 45°12' E 036°31'0 0.0
2018-Feb-04 22:09N 45°12' E 036°31'0 0.1
2018-Feb-04 21:39N 45°12' E 036°31'0 0.0
2018-Feb-04 21:21N 45°12' E 036°31'0 0.0
2018-Feb-04 20:54N 45°12' E 036°31'0 0.0
2018-Feb-04 19:45N 45°12' E 036°31'0 0.0
2018-Feb-04 19:27N 45°12' E 036°31'0 0.1
2018-Feb-04 17:39N 45°12' E 036°30'0 0.0
2018-Feb-04 17:15N 45°12' E 036°31'0 0.0
2018-Feb-04 14:39N 45°12' E 036°30'0 0.0
2018-Feb-04 14:30N 45°12' E 036°30'0 0.0
2018-Feb-04 13:51N 45°12' E 036°30'0 0.0
2018-Feb-04 13:27N 45°12' E 036°30'0 0.0
2018-Feb-04 12:09N 45°12' E 036°30'0 0.0
2018-Feb-04 11:57N 45°12' E 036°30'0 0.0
2018-Feb-04 11:24N 45°12' E 036°30'0 0.0
2018-Feb-04 09:57N 45°12' E 036°30'0 0.0
2018-Feb-04 08:54N 45°12' E 036°30'0 0.0
2018-Feb-04 08:12N 45°12' E 036°30'0 0.1
2018-Feb-04 08:00N 45°12' E 036°30'0 0.0
2018-Feb-04 07:27N 45°12' E 036°30'0 0.0
2018-Feb-04 06:15N 45°12' E 036°30'0 0.0
2018-Feb-04 06:00N 45°12' E 036°30'0 0.0
2018-Feb-04 05:30N 45°12' E 036°30'0 0.0
2018-Feb-04 00:51N 45°12' E 036°30'0 0.0
2018-Feb-03 23:30N 45°12' E 036°30'3 5.4
2018-Feb-03 22:54N 45°09' E 036°30'13 8.5
2018-Feb-03 21:21N 44°55' E 036°32'  

Dump ship's entire track history